Aeroporto :
LOGIN :

Iscrizione | Disclaimer

   EN    FR    IT 

 










Sommario :    VFR   VFR Marginale   IFR   IFR Intensivo   IFR Molto Intensivo
Visibilità : 
Base nubi : 
>= 8 km
>= 3000ft
5 / 8 km
1000 / 3000 ft
1500m / 5 km
500 / 1000 ft
800 / 1500m
200 / 500 ft
< 800m
< 200 ft
Simboli :   Temporali  Nebbia  Neve Forte  Precipitazioni Forti  Vento > 20 kt
SIGMETs :   Varie  Temporali  Ghiacco  Turbolenza  Onda orograficha  Ceneri Vulcaniche






- Altitudine del aeroporto : 204 ft
- Codice IATA : AGF


LFBA - Agen

ULTIMO METAR :
  • 012330Z AUTO 27005KT CAVOK 03/03 Q1021

METARs OBSOLETI :
  • 012300Z AUTO 28005KT CAVOK 03/03 Q1021
  • 012230Z AUTO 27005KT CAVOK 04/03 Q1021
  • 012200Z AUTO 25004KT 7000 NSC 05/04 Q1021
  • 012130Z AUTO VRB02KT 6000 NSC 05/04 Q1021
  • 012100Z AUTO 27005KT 6000 FEW009 05/05 Q1021 BECMG 0500 FG VV///

TAF TAF LFBA
Valido dal 01 a 18 ore il 02 a 03 ore UTC


011700Z 0118/0203 VRB05KT 9999 BKN015
PROB40
TEMPO 0118/0120 3000 BR BKN002
BECMG 0120/0122 0500 FG VV///



MetMap, La meteo Aeronautica in un colpo d'occhio ! - Copyright ORBIFLY Dicembre 2007 - Disclaimer

ORBIFLY MET'MAP TEAM :

Programmazione e sviluppo : Alexandra Zaïnal
Concezione : Baudouin d'Aumeries
Aiuto per la programmazione : Marc-Olivier Méhu
Supporto tecnico e logistico : Manuel Goepfert
Aiuto per la traduzione : Arnaldo La Scala

Contatto : metmap@orbifly.com




FONTI E CREDITI :

   NOAA